Time,TemperatureF,DewpointF,PressureIn,WindDirection,WindDirectionDegrees,WindSpeedMPH,WindSpeedGustMPH,Humidity,HourlyPrecipIn,Conditions,Clouds,dailyrainin,SolarRadiationWatts/m^2,SoftwareType,DateUTC
2013-02-01 02:00:00,34.0,20.0,-100.00,North,351,11.0,-999.0,56,-99.99,,,-99.99,0.000000,,2013-02-01 08:00:00,
2013-02-01 02:52:00,34.0,20.0,-100.00,North,351,11.0,-999.0,56,-99.99,,,-99.99,0.000000,,2013-02-01 08:52:00,
2013-02-01 03:00:00,32.0,20.0,-100.00,NNW,337,9.0,-999.0,61,-99.99,,,-99.99,0.000000,,2013-02-01 09:00:00,
2013-02-01 03:52:00,32.0,20.0,-100.00,NNW,337,9.0,-999.0,61,-99.99,,,-99.99,0.000000,,2013-02-01 09:52:00,
2013-02-01 04:00:00,31.0,21.0,-100.00,North,350,9.0,-999.0,67,-99.99,,,-99.99,0.000000,,2013-02-01 10:00:00,
2013-02-01 04:53:00,31.0,21.0,-100.00,North,350,9.0,-999.0,67,-99.99,,,-99.99,0.000000,,2013-02-01 10:53:00,
2013-02-01 05:00:00,29.0,17.0,-100.00,North,356,7.0,-999.0,59,-99.99,,,-99.99,0.000000,,2013-02-01 11:00:00,
2013-02-01 05:53:00,29.0,17.0,-100.00,North,356,7.0,-999.0,59,-99.99,,,-99.99,0.000000,,2013-02-01 11:53:00,
2013-02-01 06:00:00,28.0,18.0,-100.00,NNW,346,8.0,-999.0,65,-99.99,,,-99.99,0.000000,,2013-02-01 12:00:00,
2013-02-01 06:52:00,28.0,18.0,-100.00,NNW,346,8.0,-999.0,65,-99.99,,,-99.99,0.000000,,2013-02-01 12:52:00,
2013-02-01 07:00:00,28.0,15.0,-100.00,North,355,8.0,-999.0,58,-99.99,,,-99.99,0.570000,,2013-02-01 13:00:00,
2013-02-01 07:53:00,28.0,15.0,-100.00,North,355,8.0,-999.0,58,-99.99,,,-99.99,0.570000,,2013-02-01 13:53:00,
2013-02-01 08:00:00,28.0,15.0,-100.00,North,9,7.0,-999.0,57,-99.99,,,-99.99,56.580002,,2013-02-01 14:00:00,
2013-02-01 08:53:00,28.0,15.0,-100.00,North,9,7.0,-999.0,57,-99.99,,,-99.99,56.580002,,2013-02-01 14:53:00,
2013-02-01 09:00:00,29.0,14.0,-100.00,NNE,14,7.0,-999.0,54,-99.99,,,-99.99,232.899994,,2013-02-01 15:00:00,
2013-02-01 09:52:00,29.0,14.0,-100.00,NNE,14,7.0,-999.0,54,-99.99,,,-99.99,232.899994,,2013-02-01 15:52:00,
2013-02-01 10:00:00,30.0,14.0,-100.00,NNE,12,7.0,-999.0,51,-99.99,,,-99.99,415.700012,,2013-02-01 16:00:00,
2013-02-01 10:52:00,30.0,14.0,-100.00,NNE,12,7.0,-999.0,51,-99.99,,,-99.99,415.700012,,2013-02-01 16:52:00,
2013-02-01 11:00:00,32.0,18.0,-100.00,North,7,8.0,-999.0,57,-99.99,,,-99.99,554.900024,,2013-02-01 17:00:00,
2013-02-01 11:53:00,32.0,18.0,-100.00,North,7,8.0,-999.0,57,-99.99,,,-99.99,554.900024,,2013-02-01 17:53:00,
2013-02-01 12:00:00,33.0,17.0,-100.00,NNE,16,7.0,-999.0,52,-99.99,,,-99.99,644.099976,,2013-02-01 18:00:00,
2013-02-01 12:53:00,33.0,17.0,-100.00,NNE,16,7.0,-999.0,52,-99.99,,,-99.99,644.099976,,2013-02-01 18:53:00,
2013-02-01 13:00:00,35.0,17.0,-100.00,NNE,14,7.0,-999.0,47,-99.99,,,-99.99,670.500000,,2013-02-01 19:00:00,
2013-02-01 13:52:00,35.0,17.0,-100.00,NNE,14,7.0,-999.0,47,-99.99,,,-99.99,670.500000,,2013-02-01 19:52:00,
2013-02-01 14:00:00,37.0,17.0,-100.00,North,9,4.0,-999.0,45,-99.99,,,-99.99,634.299988,,2013-02-01 20:00:00,
2013-02-01 14:52:00,37.0,17.0,-100.00,North,9,4.0,-999.0,45,-99.99,,,-99.99,634.299988,,2013-02-01 20:52:00,
2013-02-01 15:00:00,38.0,16.0,-100.00,NNE,14,3.0,-999.0,41,-99.99,,,-99.99,535.500000,,2013-02-01 21:00:00,
2013-02-01 15:52:00,38.0,16.0,-100.00,NNE,14,3.0,-999.0,41,-99.99,,,-99.99,535.500000,,2013-02-01 21:52:00,
2013-02-01 16:00:00,38.0,14.0,-100.00,NNE,18,4.0,-999.0,36,-99.99,,,-99.99,381.799988,,2013-02-01 22:00:00,
2013-02-01 16:52:00,38.0,14.0,-100.00,NNE,18,4.0,-999.0,36,-99.99,,,-99.99,381.799988,,2013-02-01 22:52:00,
2013-02-01 17:00:00,38.0,16.0,-100.00,NNW,345,3.0,-999.0,39,-99.99,,,-99.99,194.500000,,2013-02-01 23:00:00,
2013-02-01 17:52:00,38.0,16.0,-100.00,NNW,345,3.0,-999.0,39,-99.99,,,-99.99,194.500000,,2013-02-01 23:52:00,
2013-02-01 18:00:00,37.0,18.0,-100.00,NNW,342,3.0,-999.0,47,-99.99,,,-99.99,25.340000,,2013-02-02 00:00:00,
2013-02-01 18:52:00,37.0,18.0,-100.00,NNW,342,3.0,-999.0,47,-99.99,,,-99.99,25.340000,,2013-02-02 00:52:00,
2013-02-01 19:00:00,36.0,19.0,-100.00,North,2,1.0,-999.0,49,-99.99,,,-99.99,0.000000,,2013-02-02 01:00:00,
2013-02-01 19:52:00,36.0,19.0,-100.00,North,2,1.0,-999.0,49,-99.99,,,-99.99,0.000000,,2013-02-02 01:52:00,
2013-02-01 20:00:00,35.0,22.0,-100.00,ENE,72,1.0,-999.0,60,-99.99,,,-99.99,0.000000,,2013-02-02 02:00:00,
2013-02-01 20:52:00,35.0,22.0,-100.00,ENE,72,1.0,-999.0,60,-99.99,,,-99.99,0.000000,,2013-02-02 02:52:00,
2013-02-01 21:00:00,34.0,24.0,-100.00,NNE,23,2.0,-999.0,67,-99.99,,,-99.99,0.000000,,2013-02-02 03:00:00,
2013-02-01 21:52:00,34.0,24.0,-100.00,NNE,23,2.0,-999.0,67,-99.99,,,-99.99,0.000000,,2013-02-02 03:52:00,
2013-02-01 22:00:00,33.0,24.0,-100.00,NE,45,2.0,-999.0,68,-99.99,,,-99.99,0.000000,,2013-02-02 04:00:00,
2013-02-01 22:52:00,33.0,24.0,-100.00,NE,45,2.0,-999.0,68,-99.99,,,-99.99,0.000000,,2013-02-02 04:52:00,
2013-02-01 23:00:00,35.0,23.0,-100.00,East,99,2.0,-999.0,60,-99.99,,,-99.99,0.000000,,2013-02-02 05:00:00,
2013-02-01 23:52:00,35.0,23.0,-100.00,East,99,2.0,-999.0,60,-99.99,,,-99.99,0.000000,,2013-02-02 05:52:00,